sensor_id;sensor_type;location;lat;lon;timestamp;pressure;altitude;pressure_sealevel;temperature;humidity
51053;BME280;37093;37.716;-122.060;2023-03-19T00:01:03;99720.46;;;19.35;41.29
51053;BME280;37093;37.716;-122.060;2023-03-19T00:03:33;99714.42;;;19.65;40.35
51053;BME280;37093;37.716;-122.060;2023-03-19T00:06:02;99705.17;;;20.57;39.47
51053;BME280;37093;37.716;-122.060;2023-03-19T00:08:31;99701.53;;;19.89;41.02
51053;BME280;37093;37.716;-122.060;2023-03-19T00:11:04;99699.71;;;19.67;40.82
51053;BME280;37093;37.716;-122.060;2023-03-19T00:13:32;99694.66;;;19.32;41.16
51053;BME280;37093;37.716;-122.060;2023-03-19T00:16:00;99691.93;;;20.09;40.90
51053;BME280;37093;37.716;-122.060;2023-03-19T00:18:29;99692.67;;;20.31;40.38
51053;BME280;37093;37.716;-122.060;2023-03-19T00:20:57;99694.27;;;20.75;41.30
51053;BME280;37093;37.716;-122.060;2023-03-19T00:23:26;99684.77;;;20.24;40.85
51053;BME280;37093;37.716;-122.060;2023-03-19T00:25:58;99683.75;;;20.10;40.52
51053;BME280;37093;37.716;-122.060;2023-03-19T00:28:31;99683.46;;;19.07;41.61
51053;BME280;37093;37.716;-122.060;2023-03-19T00:31:08;99683.10;;;19.33;42.28
51053;BME280;37093;37.716;-122.060;2023-03-19T00:33:36;99683.92;;;19.10;42.52
51053;BME280;37093;37.716;-122.060;2023-03-19T00:36:06;99679.33;;;18.39;44.21
51053;BME280;37093;37.716;-122.060;2023-03-19T00:38:35;99675.84;;;18.97;43.67
51053;BME280;37093;37.716;-122.060;2023-03-19T00:41:05;99680.37;;;19.12;43.03
51053;BME280;37093;37.716;-122.060;2023-03-19T00:43:33;99679.31;;;19.45;41.74
51053;BME280;37093;37.716;-122.060;2023-03-19T00:46:02;99674.85;;;20.08;41.26
51053;BME280;37093;37.716;-122.060;2023-03-19T00:48:30;99674.47;;;20.58;40.43
51053;BME280;37093;37.716;-122.060;2023-03-19T00:51:02;99677.81;;;20.43;40.52
51053;BME280;37093;37.716;-122.060;2023-03-19T00:53:31;99680.82;;;20.51;40.39
51053;BME280;37093;37.716;-122.060;2023-03-19T00:55:59;99680.16;;;20.58;39.37
51053;BME280;37093;37.716;-122.060;2023-03-19T00:58:27;99670.81;;;20.75;39.36
51053;BME280;37093;37.716;-122.060;2023-03-19T01:00:56;99668.35;;;20.85;39.81
51053;BME280;37093;37.716;-122.060;2023-03-19T01:03:24;99667.75;;;20.31;39.83
51053;BME280;37093;37.716;-122.060;2023-03-19T01:05:52;99658.42;;;20.18;39.83
51053;BME280;37093;37.716;-122.060;2023-03-19T01:08:20;99659.55;;;20.42;41.16
51053;BME280;37093;37.716;-122.060;2023-03-19T01:10:49;99658.61;;;19.95;40.90
51053;BME280;37093;37.716;-122.060;2023-03-19T01:13:18;99659.13;;;19.87;41.52
51053;BME280;37093;37.716;-122.060;2023-03-19T01:15:50;99654.34;;;20.13;41.56
51053;BME280;37093;37.716;-122.060;2023-03-19T01:18:19;99652.58;;;19.75;42.06
51053;BME280;37093;37.716;-122.060;2023-03-19T01:20:47;99649.53;;;19.93;41.25
51053;BME280;37093;37.716;-122.060;2023-03-19T01:23:15;99650.69;;;19.99;41.91
51053;BME280;37093;37.716;-122.060;2023-03-19T01:25:44;99651.15;;;19.63;42.50
51053;BME280;37093;37.716;-122.060;2023-03-19T01:28:12;99650.72;;;19.45;42.31
51053;BME280;37093;37.716;-122.060;2023-03-19T01:30:40;99644.66;;;19.22;43.21
51053;BME280;37093;37.716;-122.060;2023-03-19T01:33:09;99640.51;;;18.57;44.37
51053;BME280;37093;37.716;-122.060;2023-03-19T01:35:38;99639.67;;;19.43;42.52
51053;BME280;37093;37.716;-122.060;2023-03-19T01:38:06;99636.98;;;19.94;42.05
51053;BME280;37093;37.716;-122.060;2023-03-19T01:40:35;99642.18;;;20.16;40.78
51053;BME280;37093;37.716;-122.060;2023-03-19T01:43:21;99636.77;;;20.35;40.66
51053;BME280;37093;37.716;-122.060;2023-03-19T01:45:51;99630.63;;;20.14;41.25
51053;BME280;37093;37.716;-122.060;2023-03-19T01:48:28;99628.81;;;20.52;40.58
51053;BME280;37093;37.716;-122.060;2023-03-19T01:50:59;99624.93;;;19.92;41.13
51053;BME280;37093;37.716;-122.060;2023-03-19T01:53:30;99622.10;;;20.76;40.90
51053;BME280;37093;37.716;-122.060;2023-03-19T01:56:03;99609.86;;;21.11;39.36
51053;BME280;37093;37.716;-122.060;2023-03-19T01:58:34;99602.86;;;21.19;39.40
51053;BME280;37093;37.716;-122.060;2023-03-19T02:01:02;99603.20;;;21.01;39.51
51053;BME280;37093;37.716;-122.060;2023-03-19T02:03:32;99603.52;;;21.26;39.45
51053;BME280;37093;37.716;-122.060;2023-03-19T02:06:02;99604.06;;;20.64;40.09
51053;BME280;37093;37.716;-122.060;2023-03-19T02:08:30;99601.36;;;20.31;40.36
51053;BME280;37093;37.716;-122.060;2023-03-19T02:10:59;99601.40;;;20.67;39.92
51053;BME280;37093;37.716;-122.060;2023-03-19T02:13:28;99599.22;;;20.57;40.29
51053;BME280;37093;37.716;-122.060;2023-03-19T02:15:56;99597.56;;;20.27;40.46
51053;BME280;37093;37.716;-122.060;2023-03-19T02:18:25;99592.90;;;19.17;42.10
51053;BME280;37093;37.716;-122.060;2023-03-19T02:20:57;99584.54;;;19.52;41.66
51053;BME280;37093;37.716;-122.060;2023-03-19T02:23:34;99582.29;;;20.00;41.58
51053;BME280;37093;37.716;-122.060;2023-03-19T02:26:07;99580.62;;;19.57;41.64
51053;BME280;37093;37.716;-122.060;2023-03-19T02:28:39;99575.94;;;19.98;40.93
51053;BME280;37093;37.716;-122.060;2023-03-19T02:31:08;99575.90;;;20.02;41.48
51053;BME280;37093;37.716;-122.060;2023-03-19T02:33:37;99568.91;;;19.33;42.18
51053;BME280;37093;37.716;-122.060;2023-03-19T02:36:09;99568.39;;;19.95;41.60
51053;BME280;37093;37.716;-122.060;2023-03-19T02:38:40;99569.84;;;19.91;41.38
51053;BME280;37093;37.716;-122.060;2023-03-19T02:41:09;99570.62;;;20.01;40.79
51053;BME280;37093;37.716;-122.060;2023-03-19T02:43:39;99570.59;;;19.90;41.23
51053;BME280;37093;37.716;-122.060;2023-03-19T02:46:11;99564.39;;;19.77;40.98
51053;BME280;37093;37.716;-122.060;2023-03-19T02:48:40;99566.36;;;20.14;40.66
51053;BME280;37093;37.716;-122.060;2023-03-19T02:51:09;99565.10;;;20.40;40.28
51053;BME280;37093;37.716;-122.060;2023-03-19T02:53:37;99564.96;;;20.28;40.24
51053;BME280;37093;37.716;-122.060;2023-03-19T02:56:06;99564.65;;;20.37;39.89
51053;BME280;37093;37.716;-122.060;2023-03-19T02:58:35;99569.76;;;20.88;39.85
51053;BME280;37093;37.716;-122.060;2023-03-19T03:01:03;99564.93;;;21.13;38.98
51053;BME280;37093;37.716;-122.060;2023-03-19T03:03:32;99567.44;;;21.32;38.32
51053;BME280;37093;37.716;-122.060;2023-03-19T03:06:00;99572.12;;;21.04;38.34
51053;BME280;37093;37.716;-122.060;2023-03-19T03:08:28;99574.42;;;21.70;37.50
51053;BME280;37093;37.716;-122.060;2023-03-19T03:10:56;99571.85;;;21.53;37.80
51053;BME280;37093;37.716;-122.060;2023-03-19T03:13:24;99575.00;;;21.83;37.32
51053;BME280;37093;37.716;-122.060;2023-03-19T03:15:53;99575.29;;;21.85;37.45
51053;BME280;37093;37.716;-122.060;2023-03-19T03:18:22;99574.79;;;21.42;37.12
51053;BME280;37093;37.716;-122.060;2023-03-19T03:20:50;99572.52;;;21.69;37.01
51053;BME280;37093;37.716;-122.060;2023-03-19T03:23:18;99568.17;;;21.90;37.95
51053;BME280;37093;37.716;-122.060;2023-03-19T03:25:49;99565.43;;;21.37;37.42
51053;BME280;37093;37.716;-122.060;2023-03-19T03:28:18;99565.59;;;21.86;38.23
51053;BME280;37093;37.716;-122.060;2023-03-19T03:30:46;99560.03;;;21.20;37.87
51053;BME280;37093;37.716;-122.060;2023-03-19T03:33:15;99556.43;;;21.41;38.40
51053;BME280;37093;37.716;-122.060;2023-03-19T03:35:43;99559.77;;;21.22;38.46
51053;BME280;37093;37.716;-122.060;2023-03-19T03:38:11;99561.30;;;21.49;38.04
51053;BME280;37093;37.716;-122.060;2023-03-19T03:40:40;99564.14;;;21.28;37.79
51053;BME280;37093;37.716;-122.060;2023-03-19T03:43:09;99569.42;;;21.55;37.60
51053;BME280;37093;37.716;-122.060;2023-03-19T03:45:37;99575.13;;;21.40;37.49
51053;BME280;37093;37.716;-122.060;2023-03-19T03:48:06;99576.45;;;21.33;37.20
51053;BME280;37093;37.716;-122.060;2023-03-19T03:50:35;99584.89;;;20.75;38.56
51053;BME280;37093;37.716;-122.060;2023-03-19T03:53:05;99584.08;;;21.23;38.14
51053;BME280;37093;37.716;-122.060;2023-03-19T03:55:34;99583.30;;;20.84;38.28
51053;BME280;37093;37.716;-122.060;2023-03-19T03:58:02;99580.70;;;20.84;38.40
51053;BME280;37093;37.716;-122.060;2023-03-19T04:00:31;99586.73;;;20.17;40.09
51053;BME280;37093;37.716;-122.060;2023-03-19T04:02:59;99591.12;;;20.46;39.29
51053;BME280;37093;37.716;-122.060;2023-03-19T04:05:28;99594.62;;;20.15;39.39
51053;BME280;37093;37.716;-122.060;2023-03-19T04:07:56;99590.48;;;20.86;38.96
51053;BME280;37093;37.716;-122.060;2023-03-19T04:10:25;99591.64;;;20.37;38.18
51053;BME280;37093;37.716;-122.060;2023-03-19T04:12:53;99590.01;;;20.92;37.46
51053;BME280;37093;37.716;-122.060;2023-03-19T04:15:21;99582.00;;;20.50;38.08
51053;BME280;37093;37.716;-122.060;2023-03-19T04:17:49;99579.64;;;19.96;37.36
51053;BME280;37093;37.716;-122.060;2023-03-19T04:20:18;99580.66;;;19.64;37.64
51053;BME280;37093;37.716;-122.060;2023-03-19T04:22:47;99578.99;;;19.62;37.94
51053;BME280;37093;37.716;-122.060;2023-03-19T04:25:15;99579.21;;;19.68;37.76
51053;BME280;37093;37.716;-122.060;2023-03-19T04:27:44;99579.93;;;19.88;37.14
51053;BME280;37093;37.716;-122.060;2023-03-19T04:30:13;99575.19;;;19.11;38.43
51053;BME280;37093;37.716;-122.060;2023-03-19T04:32:41;99569.81;;;18.06;40.39
51053;BME280;37093;37.716;-122.060;2023-03-19T04:35:10;99554.95;;;18.20;41.22
51053;BME280;37093;37.716;-122.060;2023-03-19T04:37:38;99539.68;;;18.48;41.07
51053;BME280;37093;37.716;-122.060;2023-03-19T04:40:07;99523.82;;;18.52;41.89
51053;BME280;37093;37.716;-122.060;2023-03-19T04:42:35;99528.67;;;18.55;42.27
51053;BME280;37093;37.716;-122.060;2023-03-19T04:45:05;99521.50;;;18.73;42.93
51053;BME280;37093;37.716;-122.060;2023-03-19T04:47:33;99517.09;;;18.51;43.33
51053;BME280;37093;37.716;-122.060;2023-03-19T04:50:02;99505.15;;;19.10;41.84
51053;BME280;37093;37.716;-122.060;2023-03-19T04:52:30;99496.22;;;18.68;42.07
51053;BME280;37093;37.716;-122.060;2023-03-19T04:54:59;99515.08;;;18.97;41.66
51053;BME280;37093;37.716;-122.060;2023-03-19T04:57:27;99541.16;;;19.07;41.38
51053;BME280;37093;37.716;-122.060;2023-03-19T04:59:56;99545.79;;;19.59;41.84
51053;BME280;37093;37.716;-122.060;2023-03-19T05:02:24;99560.70;;;19.85;39.85
51053;BME280;37093;37.716;-122.060;2023-03-19T05:04:53;99571.93;;;19.88;39.25
51053;BME280;37093;37.716;-122.060;2023-03-19T05:07:21;99574.91;;;19.86;39.06
51053;BME280;37093;37.716;-122.060;2023-03-19T05:09:49;99573.89;;;19.68;39.39
51053;BME280;37093;37.716;-122.060;2023-03-19T05:12:17;99565.57;;;19.98;40.09
51053;BME280;37093;37.716;-122.060;2023-03-19T05:14:46;99554.46;;;20.21;38.94
51053;BME280;37093;37.716;-122.060;2023-03-19T05:17:14;99546.69;;;19.95;39.42
51053;BME280;37093;37.716;-122.060;2023-03-19T05:19:43;99543.91;;;20.19;38.62
51053;BME280;37093;37.716;-122.060;2023-03-19T05:22:11;99548.07;;;20.05;38.89
51053;BME280;37093;37.716;-122.060;2023-03-19T05:24:40;99526.76;;;20.08;39.55
51053;BME280;37093;37.716;-122.060;2023-03-19T05:27:08;99518.77;;;19.83;39.18
51053;BME280;37093;37.716;-122.060;2023-03-19T05:29:37;99518.66;;;20.33;38.32
51053;BME280;37093;37.716;-122.060;2023-03-19T05:32:06;99508.26;;;20.15;38.33
51053;BME280;37093;37.716;-122.060;2023-03-19T05:34:35;99523.19;;;20.40;37.53
51053;BME280;37093;37.716;-122.060;2023-03-19T05:37:04;99523.86;;;20.03;38.36
51053;BME280;37093;37.716;-122.060;2023-03-19T05:39:32;99521.43;;;20.11;38.77
51053;BME280;37093;37.716;-122.060;2023-03-19T05:42:01;99528.34;;;20.41;38.56
51053;BME280;37093;37.716;-122.060;2023-03-19T05:44:29;99533.87;;;20.20;38.62
51053;BME280;37093;37.716;-122.060;2023-03-19T05:46:57;99539.85;;;20.22;38.97
51053;BME280;37093;37.716;-122.060;2023-03-19T05:49:26;99547.36;;;20.26;37.83
51053;BME280;37093;37.716;-122.060;2023-03-19T05:51:54;99545.94;;;20.17;37.48
51053;BME280;37093;37.716;-122.060;2023-03-19T05:54:22;99540.78;;;20.24;37.36
51053;BME280;37093;37.716;-122.060;2023-03-19T05:56:52;99536.64;;;19.99;37.35
51053;BME280;37093;37.716;-122.060;2023-03-19T05:59:20;99529.32;;;20.07;36.90
51053;BME280;37093;37.716;-122.060;2023-03-19T06:01:48;99529.36;;;20.22;36.45
51053;BME280;37093;37.716;-122.060;2023-03-19T06:04:16;99526.92;;;20.20;36.62
51053;BME280;37093;37.716;-122.060;2023-03-19T06:06:45;99522.34;;;19.61;37.66
51053;BME280;37093;37.716;-122.060;2023-03-19T06:09:14;99516.66;;;19.80;37.76
51053;BME280;37093;37.716;-122.060;2023-03-19T06:11:42;99508.91;;;19.54;37.76
51053;BME280;37093;37.716;-122.060;2023-03-19T06:14:10;99509.88;;;19.54;36.45
51053;BME280;37093;37.716;-122.060;2023-03-19T06:16:38;99510.21;;;19.34;36.97
51053;BME280;37093;37.716;-122.060;2023-03-19T06:19:07;99516.61;;;18.75;47.53
51053;BME280;37093;37.716;-122.060;2023-03-19T06:21:36;99520.58;;;19.07;44.86
51053;BME280;37093;37.716;-122.060;2023-03-19T06:24:04;99532.17;;;19.51;39.98
51053;BME280;37093;37.716;-122.060;2023-03-19T06:26:33;99531.66;;;19.64;39.10
51053;BME280;37093;37.716;-122.060;2023-03-19T06:29:01;99521.65;;;20.06;38.49
51053;BME280;37093;37.716;-122.060;2023-03-19T06:31:30;99517.81;;;19.88;39.23
51053;BME280;37093;37.716;-122.060;2023-03-19T06:33:59;99514.76;;;19.99;38.23
51053;BME280;37093;37.716;-122.060;2023-03-19T06:36:27;99522.24;;;19.82;38.35
51053;BME280;37093;37.716;-122.060;2023-03-19T06:38:56;99529.44;;;19.96;39.04
51053;BME280;37093;37.716;-122.060;2023-03-19T06:41:24;99529.86;;;19.61;39.04
51053;BME280;37093;37.716;-122.060;2023-03-19T06:43:52;99528.71;;;19.14;39.53
51053;BME280;37093;37.716;-122.060;2023-03-19T06:46:20;99529.48;;;19.39;39.57
51053;BME280;37093;37.716;-122.060;2023-03-19T06:48:49;99529.84;;;19.40;39.63
51053;BME280;37093;37.716;-122.060;2023-03-19T06:51:17;99526.33;;;19.61;39.12
51053;BME280;37093;37.716;-122.060;2023-03-19T06:53:45;99533.81;;;19.11;39.44
51053;BME280;37093;37.716;-122.060;2023-03-19T06:56:13;99541.49;;;18.99;38.52
51053;BME280;37093;37.716;-122.060;2023-03-19T06:58:43;99550.40;;;19.06;38.99
51053;BME280;37093;37.716;-122.060;2023-03-19T07:01:10;99551.92;;;18.22;38.15
51053;BME280;37093;37.716;-122.060;2023-03-19T07:03:39;99554.68;;;17.49;37.46
51053;BME280;37093;37.716;-122.060;2023-03-19T07:06:07;99546.72;;;19.28;36.41
51053;BME280;37093;37.716;-122.060;2023-03-19T07:08:35;99560.12;;;19.26;37.19
51053;BME280;37093;37.716;-122.060;2023-03-19T07:11:05;99570.91;;;18.67;38.85
51053;BME280;37093;37.716;-122.060;2023-03-19T07:13:34;99572.77;;;17.33;41.48
51053;BME280;37093;37.716;-122.060;2023-03-19T07:16:02;99571.51;;;17.39;42.44
51053;BME280;37093;37.716;-122.060;2023-03-19T07:18:29;99572.68;;;17.32;43.36
51053;BME280;37093;37.716;-122.060;2023-03-19T07:20:58;99588.81;;;17.38;42.99
51053;BME280;37093;37.716;-122.060;2023-03-19T07:23:27;99577.03;;;16.84;43.82
51053;BME280;37093;37.716;-122.060;2023-03-19T07:25:55;99574.65;;;17.71;42.57
51053;BME280;37093;37.716;-122.060;2023-03-19T07:28:24;99575.84;;;17.63;42.34
51053;BME280;37093;37.716;-122.060;2023-03-19T07:30:52;99571.84;;;18.13;42.38
51053;BME280;37093;37.716;-122.060;2023-03-19T07:33:21;99565.84;;;18.28;42.26
51053;BME280;37093;37.716;-122.060;2023-03-19T07:35:49;99562.24;;;17.60;42.41
51053;BME280;37093;37.716;-122.060;2023-03-19T07:38:17;99566.73;;;17.29;46.36
51053;BME280;37093;37.716;-122.060;2023-03-19T07:40:46;99571.45;;;17.54;45.80
51053;BME280;37093;37.716;-122.060;2023-03-19T07:43:14;99570.92;;;17.90;45.17
51053;BME280;37093;37.716;-122.060;2023-03-19T07:45:43;99567.94;;;17.95;45.21
51053;BME280;37093;37.716;-122.060;2023-03-19T07:48:11;99574.44;;;17.93;44.31
51053;BME280;37093;37.716;-122.060;2023-03-19T07:50:40;99581.69;;;17.87;44.97
51053;BME280;37093;37.716;-122.060;2023-03-19T07:53:09;99582.76;;;17.36;44.64
51053;BME280;37093;37.716;-122.060;2023-03-19T07:55:37;99582.54;;;17.30;46.41
51053;BME280;37093;37.716;-122.060;2023-03-19T07:58:06;99588.46;;;15.55;47.47
51053;BME280;37093;37.716;-122.060;2023-03-19T08:00:34;99581.10;;;15.62;49.19
51053;BME280;37093;37.716;-122.060;2023-03-19T08:03:03;99574.65;;;16.64;47.56
51053;BME280;37093;37.716;-122.060;2023-03-19T08:05:31;99554.24;;;16.44;46.40
51053;BME280;37093;37.716;-122.060;2023-03-19T08:07:59;99544.51;;;16.75;46.36
51053;BME280;37093;37.716;-122.060;2023-03-19T08:10:28;99547.27;;;17.46;45.71
51053;BME280;37093;37.716;-122.060;2023-03-19T08:12:57;99546.48;;;17.24;45.66
51053;BME280;37093;37.716;-122.060;2023-03-19T08:15:25;99550.63;;;17.12;45.78
51053;BME280;37093;37.716;-122.060;2023-03-19T08:17:58;99555.00;;;16.92;46.99
51053;BME280;37093;37.716;-122.060;2023-03-19T08:20:26;99567.26;;;15.78;48.54
51053;BME280;37093;37.716;-122.060;2023-03-19T08:22:55;99556.39;;;15.91;49.78
51053;BME280;37093;37.716;-122.060;2023-03-19T08:25:24;99562.76;;;16.06;52.36
51053;BME280;37093;37.716;-122.060;2023-03-19T08:27:53;99560.08;;;15.65;51.00
51053;BME280;37093;37.716;-122.060;2023-03-19T08:30:21;99553.33;;;15.81;51.27
51053;BME280;37093;37.716;-122.060;2023-03-19T08:32:50;99542.97;;;15.74;52.55
51053;BME280;37093;37.716;-122.060;2023-03-19T08:35:18;99541.62;;;15.69;52.40
51053;BME280;37093;37.716;-122.060;2023-03-19T08:37:47;99539.44;;;15.14;53.69
51053;BME280;37093;37.716;-122.060;2023-03-19T08:40:15;99521.77;;;16.11;51.80
51053;BME280;37093;37.716;-122.060;2023-03-19T08:42:44;99516.07;;;16.43;51.66
51053;BME280;37093;37.716;-122.060;2023-03-19T08:45:14;99502.25;;;15.43;52.00
51053;BME280;37093;37.716;-122.060;2023-03-19T08:47:43;99492.40;;;15.68;52.13
51053;BME280;37093;37.716;-122.060;2023-03-19T08:50:12;99485.25;;;14.63;53.97
51053;BME280;37093;37.716;-122.060;2023-03-19T08:52:40;99481.09;;;14.55;55.51
51053;BME280;37093;37.716;-122.060;2023-03-19T08:55:09;99472.05;;;15.01;55.61
51053;BME280;37093;37.716;-122.060;2023-03-19T08:57:37;99461.64;;;14.86;53.69
51053;BME280;37093;37.716;-122.060;2023-03-19T09:00:06;99449.07;;;14.25;57.87
51053;BME280;37093;37.716;-122.060;2023-03-19T09:02:36;99446.26;;;14.38;57.76
51053;BME280;37093;37.716;-122.060;2023-03-19T09:05:05;99436.27;;;13.31;59.52
51053;BME280;37093;37.716;-122.060;2023-03-19T09:07:33;99430.74;;;12.58;64.58
51053;BME280;37093;37.716;-122.060;2023-03-19T09:10:02;99420.01;;;11.96;64.55
51053;BME280;37093;37.716;-122.060;2023-03-19T09:12:30;99416.15;;;12.47;63.48
51053;BME280;37093;37.716;-122.060;2023-03-19T09:14:59;99406.80;;;11.87;66.17
51053;BME280;37093;37.716;-122.060;2023-03-19T09:17:27;99388.52;;;11.63;67.84
51053;BME280;37093;37.716;-122.060;2023-03-19T09:19:56;99391.42;;;11.76;67.43
51053;BME280;37093;37.716;-122.060;2023-03-19T09:22:24;99388.42;;;12.90;64.62
51053;BME280;37093;37.716;-122.060;2023-03-19T09:24:53;99396.65;;;13.88;61.31
51053;BME280;37093;37.716;-122.060;2023-03-19T09:27:21;99386.51;;;13.91;58.58
51053;BME280;37093;37.716;-122.060;2023-03-19T09:29:50;99377.82;;;13.14;60.03
51053;BME280;37093;37.716;-122.060;2023-03-19T09:32:18;99371.51;;;12.70;61.52
51053;BME280;37093;37.716;-122.060;2023-03-19T09:34:47;99369.38;;;12.25;63.48
51053;BME280;37093;37.716;-122.060;2023-03-19T09:37:16;99365.00;;;12.25;64.65
51053;BME280;37093;37.716;-122.060;2023-03-19T09:39:44;99364.79;;;12.45;64.30
51053;BME280;37093;37.716;-122.060;2023-03-19T09:42:26;99360.02;;;11.53;66.48
51053;BME280;37093;37.716;-122.060;2023-03-19T09:44:59;99363.75;;;10.91;67.94
51053;BME280;37093;37.716;-122.060;2023-03-19T09:47:29;99356.25;;;11.18;67.43
51053;BME280;37093;37.716;-122.060;2023-03-19T09:50:02;99354.88;;;12.54;64.14
51053;BME280;37093;37.716;-122.060;2023-03-19T09:52:40;99361.32;;;12.96;61.89
51053;BME280;37093;37.716;-122.060;2023-03-19T09:55:19;99356.49;;;13.09;60.10
51053;BME280;37093;37.716;-122.060;2023-03-19T09:57:51;99361.87;;;13.59;55.58
51053;BME280;37093;37.716;-122.060;2023-03-19T10:00:24;99368.71;;;13.31;60.42
51053;BME280;37093;37.716;-122.060;2023-03-19T10:03:02;99373.97;;;13.39;58.05
51053;BME280;37093;37.716;-122.060;2023-03-19T10:05:45;99367.94;;;12.42;61.23
51053;BME280;37093;37.716;-122.060;2023-03-19T10:08:54;99367.71;;;12.56;60.59
51053;BME280;37093;37.716;-122.060;2023-03-19T10:11:37;99359.54;;;13.48;59.14
51053;BME280;37093;37.716;-122.060;2023-03-19T10:14:19;99346.08;;;13.21;58.46
51053;BME280;37093;37.716;-122.060;2023-03-19T10:16:53;99349.45;;;13.80;56.61
51053;BME280;37093;37.716;-122.060;2023-03-19T10:19:29;99345.38;;;14.48;55.71
51053;BME280;37093;37.716;-122.060;2023-03-19T10:22:04;99337.27;;;15.01;54.17
51053;BME280;37093;37.716;-122.060;2023-03-19T10:24:37;99332.69;;;14.06;55.47
51053;BME280;37093;37.716;-122.060;2023-03-19T10:27:12;99332.06;;;14.09;55.51
51053;BME280;37093;37.716;-122.060;2023-03-19T10:29:41;99324.75;;;14.26;55.67
51053;BME280;37093;37.716;-122.060;2023-03-19T10:32:16;99319.76;;;14.08;54.53
51053;BME280;37093;37.716;-122.060;2023-03-19T10:34:45;99308.54;;;13.77;56.81
51053;BME280;37093;37.716;-122.060;2023-03-19T10:37:16;99306.47;;;14.11;55.20
51053;BME280;37093;37.716;-122.060;2023-03-19T10:39:45;99313.03;;;14.02;56.78
51053;BME280;37093;37.716;-122.060;2023-03-19T10:42:54;99305.66;;;14.32;55.85
51053;BME280;37093;37.716;-122.060;2023-03-19T10:45:31;99286.60;;;14.96;54.14
51053;BME280;37093;37.716;-122.060;2023-03-19T10:48:01;99287.14;;;15.10;53.10
51053;BME280;37093;37.716;-122.060;2023-03-19T10:50:34;99288.41;;;14.09;54.29
51053;BME280;37093;37.716;-122.060;2023-03-19T10:53:06;99266.07;;;14.63;53.19
51053;BME280;37093;37.716;-122.060;2023-03-19T10:55:35;99255.82;;;15.24;53.29
51053;BME280;37093;37.716;-122.060;2023-03-19T10:58:06;99248.67;;;15.23;52.37
51053;BME280;37093;37.716;-122.060;2023-03-19T11:00:45;99244.78;;;15.71;52.08
51053;BME280;37093;37.716;-122.060;2023-03-19T11:03:30;99242.65;;;15.78;52.26
51053;BME280;37093;37.716;-122.060;2023-03-19T11:06:15;99253.04;;;15.63;51.45
51053;BME280;37093;37.716;-122.060;2023-03-19T11:08:51;99256.13;;;15.60;51.70
51053;BME280;37093;37.716;-122.060;2023-03-19T11:11:24;99262.11;;;15.04;54.20
51053;BME280;37093;37.716;-122.060;2023-03-19T11:13:53;99261.58;;;14.73;52.90
51053;BME280;37093;37.716;-122.060;2023-03-19T11:16:21;99264.09;;;13.99;58.52
51053;BME280;37093;37.716;-122.060;2023-03-19T11:18:50;99261.05;;;14.30;54.31
51053;BME280;37093;37.716;-122.060;2023-03-19T11:21:25;99261.48;;;14.32;54.93
51053;BME280;37093;37.716;-122.060;2023-03-19T11:24:00;99247.81;;;14.17;53.42
51053;BME280;37093;37.716;-122.060;2023-03-19T11:26:29;99240.34;;;14.31;53.89
51053;BME280;37093;37.716;-122.060;2023-03-19T11:29:03;99230.95;;;13.16;58.97
51053;BME280;37093;37.716;-122.060;2023-03-19T11:31:38;99236.01;;;12.10;59.78
51053;BME280;37093;37.716;-122.060;2023-03-19T11:34:18;99230.81;;;12.84;61.67
51053;BME280;37093;37.716;-122.060;2023-03-19T11:36:59;99223.06;;;12.65;60.95
51053;BME280;37093;37.716;-122.060;2023-03-19T11:39:37;99221.29;;;12.11;63.06
51053;BME280;37093;37.716;-122.060;2023-03-19T11:42:29;99213.74;;;12.21;63.50
51053;BME280;37093;37.716;-122.060;2023-03-19T11:45:08;99221.78;;;13.12;61.41
51053;BME280;37093;37.716;-122.060;2023-03-19T11:47:45;99224.30;;;12.18;62.29
51053;BME280;37093;37.716;-122.060;2023-03-19T11:50:23;99214.71;;;11.82;65.14
51053;BME280;37093;37.716;-122.060;2023-03-19T11:53:04;99216.25;;;11.89;68.15
51053;BME280;37093;37.716;-122.060;2023-03-19T11:55:40;99214.58;;;11.98;64.85
51053;BME280;37093;37.716;-122.060;2023-03-19T11:58:22;99217.54;;;12.73;62.37
51053;BME280;37093;37.716;-122.060;2023-03-19T12:00:54;99214.85;;;13.27;58.57
51053;BME280;37093;37.716;-122.060;2023-03-19T12:03:40;99210.33;;;13.57;59.40
51053;BME280;37093;37.716;-122.060;2023-03-19T12:06:20;99206.93;;;12.84;60.08
51053;BME280;37093;37.716;-122.060;2023-03-19T12:08:59;99203.27;;;11.85;65.70
51053;BME280;37093;37.716;-122.060;2023-03-19T12:11:39;99201.46;;;11.94;64.14
51053;BME280;37093;37.716;-122.060;2023-03-19T12:14:21;99193.51;;;12.52;63.22
51053;BME280;37093;37.716;-122.060;2023-03-19T12:17:04;99195.69;;;12.75;62.18
51053;BME280;37093;37.716;-122.060;2023-03-19T12:19:53;99191.87;;;13.53;59.27
51053;BME280;37093;37.716;-122.060;2023-03-19T12:22:35;99187.80;;;14.01;57.30
51053;BME280;37093;37.716;-122.060;2023-03-19T12:25:21;99184.90;;;14.47;55.84
51053;BME280;37093;37.716;-122.060;2023-03-19T12:27:54;99200.41;;;13.89;54.91
51053;BME280;37093;37.716;-122.060;2023-03-19T12:30:33;99213.54;;;14.11;54.11
51053;BME280;37093;37.716;-122.060;2023-03-19T12:33:12;99211.90;;;14.89;54.32
51053;BME280;37093;37.716;-122.060;2023-03-19T12:35:46;99213.54;;;13.15;55.96
51053;BME280;37093;37.716;-122.060;2023-03-19T12:38:21;99227.48;;;14.00;56.68
51053;BME280;37093;37.716;-122.060;2023-03-19T12:40:53;99221.32;;;13.42;57.95
51053;BME280;37093;37.716;-122.060;2023-03-19T12:43:26;99227.48;;;13.85;56.57
51053;BME280;37093;37.716;-122.060;2023-03-19T12:46:00;99237.74;;;13.54;59.39
51053;BME280;37093;37.716;-122.060;2023-03-19T12:48:36;99247.36;;;13.30;58.47